Time;durP1;ratioP1;P1;durP2;ratioP2;P2;SDS_P1;SDS_P2;PMS_P1;PMS_P2;Temp;Humidity;BMP_temperature;BMP_pressure;BME280_temperature;BME280_humidity;BME280_pressure;Samples;Min_cycle;Max_cycle;Signal;HPM_P1;HPM_P2
2023/03/03 00:01:26;;;;;;;54.83;23.92;;;;;;;;;;5047673;28;20029;-67
2023/03/03 00:03:52;;;;;;;48.95;23.45;;;;;;;;;;5046865;28;20384;-67
2023/03/03 00:06:19;;;;;;;49.58;24.70;;;;;;;;;;5048537;28;20037;-65
2023/03/03 00:08:44;;;;;;;48.67;24.77;;;;;;;;;;5048693;28;20090;-68
2023/03/03 00:11:10;;;;;;;51.95;24.42;;;;;;;;;;5030002;28;20163;-68
2023/03/03 00:13:54;;;;;;;48.90;23.13;;;;;;;;;;5046756;28;20029;-68
2023/03/03 00:16:28;;;;;;;52.97;24.23;;;;;;;;;;5047309;28;20075;-68
2023/03/03 00:18:55;;;;;;;49.15;24.58;;;;;;;;;;5048128;28;20547;-67
2023/03/03 00:21:41;;;;;;;55.97;24.75;;;;;;;;;;5047940;28;20179;-68
2023/03/03 00:24:12;;;;;;;54.50;25.80;;;;;;;;;;5047494;28;20045;-68
2023/03/03 00:26:40;;;;;;;49.25;23.63;;;;;;;;;;5028948;28;20477;-68
2023/03/03 00:29:29;;;;;;;57.22;27.02;;;;;;;;;;5046132;28;20020;-67
2023/03/03 00:32:12;;;;;;;51.03;24.17;;;;;;;;;;5029940;28;20035;-68
2023/03/03 00:34:37;;;;;;;50.47;24.13;;;;;;;;;;5030368;28;20061;-68
2023/03/03 00:37:22;;;;;;;47.50;23.05;;;;;;;;;;5030837;28;20063;-68
2023/03/03 00:39:48;;;;;;;59.78;24.70;;;;;;;;;;5028884;28;20028;-66
2023/03/03 00:42:14;;;;;;;61.75;27.33;;;;;;;;;;5047932;28;20035;-66
2023/03/03 00:44:44;;;;;;;71.03;27.58;;;;;;;;;;5029360;28;20643;-66
2023/03/03 00:47:28;;;;;;;66.97;27.25;;;;;;;;;;5030372;28;20037;-68
2023/03/03 00:50:10;;;;;;;52.30;25.55;;;;;;;;;;5029124;28;20650;-68
2023/03/03 00:52:38;;;;;;;53.33;25.17;;;;;;;;;;5047477;28;20058;-66
2023/03/03 00:55:06;;;;;;;59.78;27.02;;;;;;;;;;5030210;28;20033;-66
2023/03/03 00:57:31;;;;;;;68.20;27.58;;;;;;;;;;5061194;28;20152;-66
2023/03/03 00:59:58;;;;;;;71.68;30.10;;;;;;;;;;5047245;28;20425;-67
2023/03/03 01:02:23;;;;;;;79.28;33.20;;;;;;;;;;5030101;28;20084;-66
2023/03/03 01:04:52;;;;;;;72.30;32.10;;;;;;;;;;5030752;28;20037;-68
2023/03/03 01:07:18;;;;;;;58.08;26.52;;;;;;;;;;5045809;28;20082;-67
2023/03/03 01:09:44;;;;;;;66.85;28.63;;;;;;;;;;5047688;28;20485;-68
2023/03/03 01:12:10;;;;;;;69.15;28.17;;;;;;;;;;5029651;28;20094;-68
2023/03/03 01:14:37;;;;;;;70.55;29.52;;;;;;;;;;5046542;28;20029;-68
2023/03/03 01:17:03;;;;;;;73.38;29.75;;;;;;;;;;5029283;28;20645;-68
2023/03/03 01:19:28;;;;;;;59.55;27.45;;;;;;;;;;5047998;28;20058;-67
2023/03/03 01:21:54;;;;;;;55.67;25.83;;;;;;;;;;5048843;28;20381;-68
2023/03/03 01:24:20;;;;;;;62.60;26.90;;;;;;;;;;5045782;28;20037;-67
2023/03/03 01:26:46;;;;;;;50.83;24.80;;;;;;;;;;5047429;28;20032;-68
2023/03/03 01:29:11;;;;;;;58.10;26.00;;;;;;;;;;5045644;28;20040;-67
2023/03/03 01:31:37;;;;;;;49.28;23.52;;;;;;;;;;5026919;28;20033;-67
2023/03/03 01:34:02;;;;;;;53.15;24.13;;;;;;;;;;5029104;28;20105;-67
2023/03/03 01:36:28;;;;;;;51.50;24.98;;;;;;;;;;5047155;28;20128;-68
2023/03/03 01:38:54;;;;;;;53.10;24.60;;;;;;;;;;5046499;28;20533;-67
2023/03/03 01:41:20;;;;;;;56.75;25.50;;;;;;;;;;5028748;28;20449;-67
2023/03/03 01:43:48;;;;;;;55.80;25.13;;;;;;;;;;5046195;28;20040;-68
2023/03/03 01:46:23;;;;;;;55.38;25.45;;;;;;;;;;5062521;28;20732;-67
2023/03/03 01:48:54;;;;;;;55.85;24.52;;;;;;;;;;5046866;28;20464;-68
2023/03/03 01:51:29;;;;;;;59.53;25.73;;;;;;;;;;5045309;28;20047;-67
2023/03/03 01:53:59;;;;;;;64.00;27.10;;;;;;;;;;5028427;28;20029;-67
2023/03/03 01:56:25;;;;;;;55.33;26.45;;;;;;;;;;5053460;28;20036;-67
2023/03/03 01:59:00;;;;;;;59.65;26.52;;;;;;;;;;5027847;28;20036;-67
2023/03/03 02:01:27;;;;;;;59.28;26.45;;;;;;;;;;5061015;28;20037;-68
2023/03/03 02:03:53;;;;;;;53.85;24.77;;;;;;;;;;5047534;28;20040;-67
2023/03/03 02:06:23;;;;;;;61.28;26.17;;;;;;;;;;5059903;28;20032;-68
2023/03/03 02:08:54;;;;;;;;;;;;;;;;;;5027859;28;20040;-67
2023/03/03 02:11:21;;;;;;;50.70;23.38;;;;;;;;;;5029667;28;19952;-68
2023/03/03 02:13:47;;;;;;;52.67;25.17;;;;;;;;;;5047158;28;20033;-67
2023/03/03 02:16:12;;;;;;;57.53;24.38;;;;;;;;;;5047109;28;20033;-67
2023/03/03 02:18:38;;;;;;;50.70;24.75;;;;;;;;;;5026921;28;20617;-68
2023/03/03 02:21:09;;;;;;;53.38;26.70;;;;;;;;;;5046973;28;20436;-67
2023/03/03 02:23:40;;;;;;;51.28;25.05;;;;;;;;;;5029192;28;20140;-68
2023/03/03 02:26:21;;;;;;;53.97;24.73;;;;;;;;;;5022469;28;20446;-68
2023/03/03 02:28:48;;;;;;;63.83;25.60;;;;;;;;;;5041972;28;20033;-68
2023/03/03 02:31:19;;;;;;;58.67;25.67;;;;;;;;;;5032936;28;20040;-67
2023/03/03 02:33:48;;;;;;;49.38;23.17;;;;;;;;;;5030796;28;20071;-67
2023/03/03 02:36:20;;;;;;;50.55;25.67;;;;;;;;;;5039061;28;20060;-67
2023/03/03 02:38:51;;;;;;;57.55;25.13;;;;;;;;;;5049485;28;20124;-67
2023/03/03 02:41:39;;;;;;;51.40;24.90;;;;;;;;;;5063332;28;20120;-67
2023/03/03 02:44:15;;;;;;;53.03;23.90;;;;;;;;;;5011957;28;20069;-68
2023/03/03 02:46:45;;;;;;;58.00;24.88;;;;;;;;;;5032916;28;20171;-68
2023/03/03 02:49:14;;;;;;;62.15;27.45;;;;;;;;;;5032493;28;20040;-67
2023/03/03 02:51:40;;;;;;;60.28;26.73;;;;;;;;;;5063836;28;20040;-67
2023/03/03 02:54:07;;;;;;;62.28;27.13;;;;;;;;;;5064988;28;20067;-67
2023/03/03 02:56:33;;;;;;;59.17;25.33;;;;;;;;;;5031568;28;20025;-68
2023/03/03 02:58:59;;;;;;;57.22;25.98;;;;;;;;;;5032942;28;20044;-68
2023/03/03 03:01:28;;;;;;;60.70;25.67;;;;;;;;;;5031442;28;20029;-68
2023/03/03 03:03:54;;;;;;;59.38;26.08;;;;;;;;;;5031493;28;20037;-68
2023/03/03 03:06:21;;;;;;;50.55;25.05;;;;;;;;;;5049735;28;20056;-67
2023/03/03 03:08:47;;;;;;;52.58;24.17;;;;;;;;;;5032235;28;20125;-68
2023/03/03 03:11:13;;;;;;;54.65;24.33;;;;;;;;;;5033414;28;20036;-67
2023/03/03 03:13:39;;;;;;;53.97;24.25;;;;;;;;;;5034848;28;20672;-67
2023/03/03 03:16:05;;;;;;;50.38;24.77;;;;;;;;;;5032741;28;20041;-68
2023/03/03 03:18:31;;;;;;;58.70;26.00;;;;;;;;;;5030914;28;20111;-68
2023/03/03 03:21:05;;;;;;;56.20;27.65;;;;;;;;;;5030603;28;20493;-68
2023/03/03 03:23:31;;;;;;;55.17;26.55;;;;;;;;;;5032247;28;20041;-68
2023/03/03 03:25:58;;;;;;;55.95;26.23;;;;;;;;;;5030821;28;20433;-67
2023/03/03 03:28:27;;;;;;;58.08;25.90;;;;;;;;;;5027815;28;20033;-68
2023/03/03 03:30:53;;;;;;;51.25;24.23;;;;;;;;;;5030994;28;20045;-68
2023/03/03 03:33:20;;;;;;;53.85;24.52;;;;;;;;;;5031859;28;20028;-68
2023/03/03 03:35:47;;;;;;;47.70;23.42;;;;;;;;;;5029622;28;20036;-68
2023/03/03 03:38:14;;;;;;;49.38;23.42;;;;;;;;;;5032109;28;20044;-68
2023/03/03 03:40:41;;;;;;;55.70;25.00;;;;;;;;;;5031462;28;20500;-68
2023/03/03 03:43:07;;;;;;;60.58;27.13;;;;;;;;;;5031806;28;20792;-68
2023/03/03 03:45:33;;;;;;;55.85;25.13;;;;;;;;;;5032441;28;20024;-67
2023/03/03 03:47:59;;;;;;;52.10;25.23;;;;;;;;;;5013747;28;20499;-66
2023/03/03 03:50:25;;;;;;;58.67;23.90;;;;;;;;;;5031862;28;20087;-68
2023/03/03 03:52:51;;;;;;;58.40;25.02;;;;;;;;;;5030636;28;20041;-68
2023/03/03 03:55:17;;;;;;;46.70;24.52;;;;;;;;;;5031207;28;20373;-68
2023/03/03 03:57:43;;;;;;;51.40;24.52;;;;;;;;;;5050797;28;20040;-67
2023/03/03 04:00:10;;;;;;;53.33;25.45;;;;;;;;;;5030866;28;20044;-67
2023/03/03 04:02:48;;;;;;;56.88;24.98;;;;;;;;;;5048387;28;20523;-68
2023/03/03 04:05:15;;;;;;;52.53;24.67;;;;;;;;;;5031033;28;20037;-68
2023/03/03 04:07:41;;;;;;;56.63;24.85;;;;;;;;;;5030184;28;20044;-68
2023/03/03 04:10:08;;;;;;;52.10;25.33;;;;;;;;;;5028165;28;20508;-67
2023/03/03 04:12:37;;;;;;;52.67;24.42;;;;;;;;;;5031224;28;20037;-68
2023/03/03 04:15:07;;;;;;;55.67;24.25;;;;;;;;;;5030679;28;20029;-68
2023/03/03 04:17:33;;;;;;;50.90;24.08;;;;;;;;;;5028176;28;20033;-68
2023/03/03 04:19:59;;;;;;;49.92;24.10;;;;;;;;;;5030581;28;20033;-67
2023/03/03 04:22:24;;;;;;;48.60;25.23;;;;;;;;;;5030654;28;20484;-67
2023/03/03 04:24:50;;;;;;;49.63;23.52;;;;;;;;;;5030637;28;20500;-68
2023/03/03 04:27:16;;;;;;;53.15;25.55;;;;;;;;;;5029072;28;20409;-68
2023/03/03 04:29:42;;;;;;;51.42;25.13;;;;;;;;;;5048368;28;20033;-68
2023/03/03 04:32:09;;;;;;;53.20;25.80;;;;;;;;;;5031390;28;20496;-67
2023/03/03 04:34:36;;;;;;;56.28;24.20;;;;;;;;;;5029029;28;20123;-68
2023/03/03 04:37:01;;;;;;;49.67;24.70;;;;;;;;;;5047940;28;20112;-68
2023/03/03 04:39:28;;;;;;;54.42;25.02;;;;;;;;;;5030719;28;20316;-68
2023/03/03 04:41:54;;;;;;;48.97;22.80;;;;;;;;;;5028824;28;20029;-67
2023/03/03 04:44:20;;;;;;;54.25;24.02;;;;;;;;;;5029966;28;20036;-67
2023/03/03 04:46:47;;;;;;;50.03;24.27;;;;;;;;;;5029572;28;20154;-67
2023/03/03 04:49:13;;;;;;;47.42;22.33;;;;;;;;;;5013256;28;20511;-68
2023/03/03 04:51:41;;;;;;;48.13;23.95;;;;;;;;;;5027504;28;20043;-68
2023/03/03 04:54:07;;;;;;;51.15;22.90;;;;;;;;;;5032323;28;20112;-68
2023/03/03 04:56:32;;;;;;;49.53;22.67;;;;;;;;;;5030389;28;20033;-68
2023/03/03 04:58:58;;;;;;;56.50;24.58;;;;;;;;;;5030544;28;20539;-68
2023/03/03 05:01:24;;;;;;;53.63;25.95;;;;;;;;;;5028383;28;20616;-66
2023/03/03 05:03:50;;;;;;;53.67;24.83;;;;;;;;;;5029096;28;20561;-68
2023/03/03 05:06:17;;;;;;;46.95;23.83;;;;;;;;;;5030337;28;20063;-67
2023/03/03 05:08:44;;;;;;;50.67;23.58;;;;;;;;;;5047497;28;20041;-67
2023/03/03 05:11:10;;;;;;;56.33;24.55;;;;;;;;;;5045901;28;20048;-67
2023/03/03 05:13:35;;;;;;;51.60;25.20;;;;;;;;;;5047611;28;20021;-68
2023/03/03 05:16:01;;;;;;;49.15;23.77;;;;;;;;;;5047848;28;20044;-66
2023/03/03 05:18:27;;;;;;;47.63;22.77;;;;;;;;;;5035188;28;20480;-66
2023/03/03 05:20:53;;;;;;;48.70;23.17;;;;;;;;;;5044511;28;20033;-68
2023/03/03 05:23:20;;;;;;;47.38;23.23;;;;;;;;;;5047620;28;20060;-68
2023/03/03 05:25:49;;;;;;;61.88;26.75;;;;;;;;;;5047534;28;20032;-68
2023/03/03 05:28:16;;;;;;;54.50;25.05;;;;;;;;;;5037992;28;20024;-68
2023/03/03 05:30:41;;;;;;;57.15;27.35;;;;;;;;;;5047051;28;20055;-66
2023/03/03 05:33:09;;;;;;;59.13;26.05;;;;;;;;;;5047887;28;20033;-66
2023/03/03 05:35:34;;;;;;;57.58;25.42;;;;;;;;;;5029858;28;20500;-66
2023/03/03 05:38:02;;;;;;;55.03;24.88;;;;;;;;;;5045139;28;20078;-68
2023/03/03 05:40:27;;;;;;;59.85;25.95;;;;;;;;;;5047197;28;20032;-68
2023/03/03 05:42:53;;;;;;;63.88;26.88;;;;;;;;;;5047227;28;20400;-68
2023/03/03 05:45:20;;;;;;;56.90;26.55;;;;;;;;;;5047722;28;20064;-68
2023/03/03 05:47:49;;;;;;;67.05;27.75;;;;;;;;;;5044737;28;20029;-67
2023/03/03 05:50:15;;;;;;;56.78;25.25;;;;;;;;;;5046374;28;20511;-68
2023/03/03 05:52:40;;;;;;;49.63;23.98;;;;;;;;;;5044293;28;20100;-68
2023/03/03 05:55:06;;;;;;;57.95;26.65;;;;;;;;;;5044300;28;20033;-68
2023/03/03 05:57:32;;;;;;;55.10;26.38;;;;;;;;;;5046223;28;20523;-68
2023/03/03 05:59:57;;;;;;;52.42;24.60;;;;;;;;;;5046653;28;20028;-68
2023/03/03 06:02:23;;;;;;;53.78;23.95;;;;;;;;;;5045842;28;20397;-68
2023/03/03 06:04:48;;;;;;;53.47;25.88;;;;;;;;;;5043263;28;20480;-68
2023/03/03 06:07:14;;;;;;;46.72;22.45;;;;;;;;;;5046396;28;20033;-68
2023/03/03 06:09:40;;;;;;;52.10;24.83;;;;;;;;;;5047084;28;20029;-67
2023/03/03 06:12:06;;;;;;;52.05;24.95;;;;;;;;;;5044695;28;20033;-67
2023/03/03 06:14:31;;;;;;;48.05;22.50;;;;;;;;;;5046564;28;20041;-67
2023/03/03 06:16:57;;;;;;;55.33;26.38;;;;;;;;;;5046521;28;20035;-66
2023/03/03 06:19:23;;;;;;;54.05;25.10;;;;;;;;;;5046835;28;20025;-66
2023/03/03 06:21:49;;;;;;;61.55;25.60;;;;;;;;;;5045706;28;20132;-67
2023/03/03 06:24:14;;;;;;;62.35;26.88;;;;;;;;;;5047645;28;20516;-67
2023/03/03 06:26:40;;;;;;;52.88;24.98;;;;;;;;;;5048552;28;20044;-66
2023/03/03 06:29:06;;;;;;;57.38;27.33;;;;;;;;;;5052557;28;20118;-66
2023/03/03 06:31:32;;;;;;;58.85;25.73;;;;;;;;;;5045598;28;20124;-66
2023/03/03 06:33:58;;;;;;;57.65;26.77;;;;;;;;;;5044312;28;20402;-67
2023/03/03 06:36:24;;;;;;;63.95;26.58;;;;;;;;;;5047267;28;20049;-66
2023/03/03 06:38:50;;;;;;;56.17;25.52;;;;;;;;;;5047759;28;20041;-67
2023/03/03 06:41:16;;;;;;;56.38;26.13;;;;;;;;;;5043732;28;20031;-66
2023/03/03 06:43:41;;;;;;;58.92;26.75;;;;;;;;;;5046219;28;20037;-66
2023/03/03 06:46:07;;;;;;;61.55;27.98;;;;;;;;;;5046397;28;20029;-66
2023/03/03 06:48:33;;;;;;;54.20;25.38;;;;;;;;;;5043847;28;20064;-66
2023/03/03 06:51:01;;;;;;;57.97;27.40;;;;;;;;;;5046611;28;20083;-66
2023/03/03 06:53:27;;;;;;;48.40;23.90;;;;;;;;;;5046597;28;20071;-66
2023/03/03 06:55:57;;;;;;;48.30;24.23;;;;;;;;;;5044410;28;20376;-66
2023/03/03 06:58:34;;;;;;;48.13;24.17;;;;;;;;;;5046475;28;20036;-66
2023/03/03 07:01:01;;;;;;;54.65;24.80;;;;;;;;;;5045040;28;20052;-66
2023/03/03 07:03:33;;;;;;;48.78;23.90;;;;;;;;;;5046590;28;20467;-66
2023/03/03 07:06:01;;;;;;;51.03;24.95;;;;;;;;;;5043364;28;20516;-66
2023/03/03 07:08:30;;;;;;;52.78;25.88;;;;;;;;;;5045201;28;20028;-66
2023/03/03 07:11:01;;;;;;;54.13;24.83;;;;;;;;;;5046305;28;20033;-66
2023/03/03 07:13:28;;;;;;;51.50;25.20;;;;;;;;;;5046279;28;20029;-66
2023/03/03 07:15:59;;;;;;;51.28;24.52;;;;;;;;;;5048429;28;20044;-66
2023/03/03 07:18:39;;;;;;;53.50;26.10;;;;;;;;;;5049311;28;20112;-68
2023/03/03 07:21:12;;;;;;;56.45;25.70;;;;;;;;;;5047326;28;20053;-67
2023/03/03 07:23:42;;;;;;;49.15;24.20;;;;;;;;;;5051714;28;20035;-67
2023/03/03 07:26:11;;;;;;;57.58;25.48;;;;;;;;;;5050462;28;20028;-67
2023/03/03 07:28:41;;;;;;;53.33;26.27;;;;;;;;;;5047577;28;20029;-67
2023/03/03 07:31:25;;;;;;;54.17;25.63;;;;;;;;;;5047948;28;20308;-67
2023/03/03 07:33:51;;;;;;;54.42;25.73;;;;;;;;;;5048084;28;20563;-65
2023/03/03 07:36:36;;;;;;;53.55;25.42;;;;;;;;;;5049681;28;20119;-67
2023/03/03 07:39:23;;;;;;;51.40;24.48;;;;;;;;;;5047639;28;20040;-67
2023/03/03 07:41:48;;;;;;;50.67;24.13;;;;;;;;;;5049396;28;20124;-67
2023/03/03 07:44:21;;;;;;;53.08;25.92;;;;;;;;;;5053268;28;20477;-67
2023/03/03 07:46:48;;;;;;;60.47;28.05;;;;;;;;;;5050688;28;20025;-67
2023/03/03 07:49:26;;;;;;;55.92;25.77;;;;;;;;;;5046352;28;20043;-67
2023/03/03 07:51:56;;;;;;;57.05;24.73;;;;;;;;;;5048277;28;20041;-67
2023/03/03 07:54:42;;;;;;;56.40;25.45;;;;;;;;;;5050352;28;20412;-67
2023/03/03 07:57:10;;;;;;;51.53;25.17;;;;;;;;;;5048509;28;20110;-68
2023/03/03 07:59:40;;;;;;;56.40;23.63;;;;;;;;;;5047448;28;20036;-67
2023/03/03 08:02:17;;;;;;;46.40;24.50;;;;;;;;;;5049346;28;20319;-67
2023/03/03 08:04:49;;;;;;;45.85;23.65;;;;;;;;;;5048004;28;20071;-66
2023/03/03 08:07:20;;;;;;;45.47;22.00;;;;;;;;;;5046672;28;20033;-68
2023/03/03 08:09:55;;;;;;;45.05;22.23;;;;;;;;;;5048796;28;20278;-68
2023/03/03 08:12:40;;;;;;;44.67;23.15;;;;;;;;;;5049323;28;20075;-68
2023/03/03 08:15:22;;;;;;;54.10;25.77;;;;;;;;;;5047244;28;20523;-67
2023/03/03 08:17:50;;;;;;;50.20;22.77;;;;;;;;;;5048085;28;20512;-68
2023/03/03 08:20:27;;;;;;;50.70;25.63;;;;;;;;;;5048250;28;20695;-68
2023/03/03 08:22:53;;;;;;;46.05;22.90;;;;;;;;;;5045770;28;20060;-68
2023/03/03 08:25:18;;;;;;;41.13;21.38;;;;;;;;;;5047408;28;20033;-67
2023/03/03 08:27:44;;;;;;;41.05;22.05;;;;;;;;;;5048914;28;20041;-67
2023/03/03 08:30:10;;;;;;;35.80;19.52;;;;;;;;;;5048123;28;20037;-67
2023/03/03 08:32:35;;;;;;;39.55;20.35;;;;;;;;;;5047037;28;20060;-66
2023/03/03 08:35:01;;;;;;;52.28;20.73;;;;;;;;;;5042028;28;20057;-67
2023/03/03 08:37:27;;;;;;;34.13;19.25;;;;;;;;;;5021508;28;20040;-67
2023/03/03 08:39:52;;;;;;;43.10;21.35;;;;;;;;;;5047617;28;20037;-67
2023/03/03 08:42:18;;;;;;;38.28;18.75;;;;;;;;;;5045984;28;20535;-66
2023/03/03 08:44:43;;;;;;;37.78;20.48;;;;;;;;;;5045113;28;20079;-66
2023/03/03 08:47:09;;;;;;;41.17;20.88;;;;;;;;;;5036611;28;20570;-66
2023/03/03 08:49:34;;;;;;;34.90;20.42;;;;;;;;;;5047033;28;20087;-67
2023/03/03 08:52:00;;;;;;;39.60;22.23;;;;;;;;;;5045647;28;20488;-67
2023/03/03 08:54:26;;;;;;;44.65;23.10;;;;;;;;;;5048085;28;20025;-67
2023/03/03 08:56:51;;;;;;;45.33;23.05;;;;;;;;;;5047365;28;20040;-67
2023/03/03 08:59:18;;;;;;;43.95;21.48;;;;;;;;;;5046539;28;20029;-67
2023/03/03 09:01:44;;;;;;;37.50;21.48;;;;;;;;;;5046940;28;20582;-67
2023/03/03 09:04:10;;;;;;;39.45;22.30;;;;;;;;;;5047930;28;20076;-67
2023/03/03 09:06:35;;;;;;;38.63;22.20;;;;;;;;;;5048126;28;20072;-67
2023/03/03 09:09:01;;;;;;;44.05;22.40;;;;;;;;;;5045308;28;20036;-67
2023/03/03 09:11:28;;;;;;;39.63;22.52;;;;;;;;;;5047344;28;20120;-67
2023/03/03 09:14:01;;;;;;;38.10;20.10;;;;;;;;;;5048151;28;20094;-67
2023/03/03 09:16:33;;;;;;;40.83;23.02;;;;;;;;;;5045434;28;20040;-67
2023/03/03 09:18:59;;;;;;;36.13;20.05;;;;;;;;;;5047850;28;20047;-67
2023/03/03 09:21:33;;;;;;;44.22;23.02;;;;;;;;;;5047805;28;20387;-67
2023/03/03 09:23:59;;;;;;;38.45;22.85;;;;;;;;;;5044624;28;20048;-67
2023/03/03 09:26:47;;;;;;;41.67;22.75;;;;;;;;;;5047091;28;20427;-67
2023/03/03 09:29:13;;;;;;;44.00;21.73;;;;;;;;;;5046526;28;20028;-67
2023/03/03 09:31:42;;;;;;;38.55;22.92;;;;;;;;;;5047706;28;20082;-67
2023/03/03 09:34:19;;;;;;;43.85;22.35;;;;;;;;;;5045530;28;20029;-66
2023/03/03 09:36:45;;;;;;;46.05;22.35;;;;;;;;;;5046828;28;20048;-68
2023/03/03 09:39:18;;;;;;;38.45;22.40;;;;;;;;;;5046516;28;20041;-67
2023/03/03 09:41:58;;;;;;;36.55;21.92;;;;;;;;;;5046624;28;20047;-68
2023/03/03 09:44:49;;;;;;;38.50;21.70;;;;;;;;;;5043230;28;20495;-68
2023/03/03 09:47:28;;;;;;;36.97;20.02;;;;;;;;;;5046320;28;20041;-68
2023/03/03 09:49:59;;;;;;;38.40;21.40;;;;;;;;;;5046910;28;20040;-67
2023/03/03 09:52:25;;;;;;;39.53;22.38;;;;;;;;;;5045398;28;20037;-67
2023/03/03 09:55:02;;;;;;;42.70;22.00;;;;;;;;;;5048475;28;20372;-68
2023/03/03 09:57:45;;;;;;;41.17;23.80;;;;;;;;;;5048308;28;20244;-68
2023/03/03 10:00:42;;;;;;;46.67;24.02;;;;;;;;;;5046198;28;20067;-68
2023/03/03 10:03:26;;;;;;;38.97;22.10;;;;;;;;;;5048509;28;20029;-68
2023/03/03 10:06:09;;;;;;;38.13;22.42;;;;;;;;;;5047425;28;20025;-67
2023/03/03 10:08:50;;;;;;;40.00;21.98;;;;;;;;;;5047829;28;20036;-67
2023/03/03 10:11:34;;;;;;;47.50;23.80;;;;;;;;;;5046397;28;20025;-67
2023/03/03 10:14:05;;;;;;;42.70;24.83;;;;;;;;;;5047852;28;20036;-68
2023/03/03 10:17:05;;;;;;;47.30;24.02;;;;;;;;;;5045394;28;20035;-67
2023/03/03 10:19:43;;;;;;;38.38;22.27;;;;;;;;;;5045489;28;20037;-67
2023/03/03 10:22:08;;;;;;;39.72;22.90;;;;;;;;;;5048105;28;20048;-67
2023/03/03 10:25:14;;;;;;;33.15;21.48;;;;;;;;;;5048116;28;20072;-67
2023/03/03 10:27:45;;;;;;;38.13;22.80;;;;;;;;;;5027819;28;20060;-66
2023/03/03 10:30:53;;;;;;;36.70;21.00;;;;;;;;;;5047160;28;20048;-67
2023/03/03 10:33:29;;;;;;;40.53;21.55;;;;;;;;;;5027019;28;20618;-68
2023/03/03 10:36:10;;;;;;;42.28;23.35;;;;;;;;;;5044043;28;20033;-68
2023/03/03 10:38:58;;;;;;;40.67;23.67;;;;;;;;;;5047280;28;20040;-68
2023/03/03 10:41:58;;;;;;;41.00;22.20;;;;;;;;;;5045425;28;20507;-67
2023/03/03 10:44:31;;;;;;;33.72;21.58;;;;;;;;;;5043656;28;20468;-67
2023/03/03 10:46:59;;;;;;;40.10;24.02;;;;;;;;;;5045139;28;20123;-67
2023/03/03 10:49:55;;;;;;;40.50;24.83;;;;;;;;;;5049577;28;20036;-68
2023/03/03 10:52:23;;;;;;;35.92;23.02;;;;;;;;;;5050608;28;20102;-67
2023/03/03 10:54:54;;;;;;;42.60;23.20;;;;;;;;;;5038707;28;20441;-67
2023/03/03 10:57:28;;;;;;;38.53;24.15;;;;;;;;;;5047011;28;20032;-67
2023/03/03 11:00:05;;;;;;;38.45;23.08;;;;;;;;;;5051175;28;20041;-67
2023/03/03 11:03:09;;;;;;;39.55;23.00;;;;;;;;;;5032462;28;20034;-68
2023/03/03 11:05:56;;;;;;;40.38;23.38;;;;;;;;;;4996087;28;20046;-67
2023/03/03 11:08:33;;;;;;;42.13;25.05;;;;;;;;;;5004229;28;20034;-68
2023/03/03 11:11:18;;;;;;;42.97;24.25;;;;;;;;;;4990273;28;20054;-68
2023/03/03 11:14:05;;;;;;;45.38;26.08;;;;;;;;;;4988229;28;20038;-68
2023/03/03 11:16:57;;;;;;;45.10;23.10;;;;;;;;;;4991056;28;20116;-68
2023/03/03 11:19:51;;;;;;;44.83;23.08;;;;;;;;;;4982339;28;20787;-67
2023/03/03 11:22:40;;;;;;;41.78;24.15;;;;;;;;;;4982473;28;20533;-68
2023/03/03 11:25:39;;;;;;;41.60;23.92;;;;;;;;;;4993535;28;20043;-68
2023/03/03 11:28:23;;;;;;;35.03;20.75;;;;;;;;;;4980187;28;20101;-68
2023/03/03 11:31:27;;;;;;;44.47;24.80;;;;;;;;;;4988076;28;20133;-68
2023/03/03 11:34:14;;;;;;;42.83;23.55;;;;;;;;;;4949044;28;20042;-67
2023/03/03 11:36:51;;;;;;;41.13;24.17;;;;;;;;;;5021584;28;20049;-67
2023/03/03 11:39:21;;;;;;;34.13;21.42;;;;;;;;;;5048419;28;20033;-68
2023/03/03 11:42:17;;;;;;;39.80;21.45;;;;;;;;;;5050033;28;20033;-67
2023/03/03 11:44:51;;;;;;;37.67;21.73;;;;;;;;;;5048530;28;20063;-67
2023/03/03 11:47:29;;;;;;;35.58;22.05;;;;;;;;;;5049587;28;20134;-68
2023/03/03 11:50:03;;;;;;;41.58;23.40;;;;;;;;;;5049212;28;20064;-68
2023/03/03 11:52:52;;;;;;;38.65;22.70;;;;;;;;;;5039811;28;20132;-68
2023/03/03 11:55:35;;;;;;;39.47;22.47;;;;;;;;;;5045282;28;20365;-68
2023/03/03 11:58:41;;;;;;;41.78;24.88;;;;;;;;;;5046015;28;20032;-68
2023/03/03 12:01:19;;;;;;;40.70;23.05;;;;;;;;;;5011366;28;20049;-68
2023/03/03 12:04:03;;;;;;;34.95;21.85;;;;;;;;;;5016054;28;20127;-67
2023/03/03 12:07:02;;;;;;;43.80;25.30;;;;;;;;;;5019051;28;20132;-67
2023/03/03 12:09:36;;;;;;;44.17;24.90;;;;;;;;;;5029485;28;20033;-67
2023/03/03 12:12:13;;;;;;;38.15;22.63;;;;;;;;;;5029053;28;20052;-67
2023/03/03 12:14:45;;;;;;;39.55;23.25;;;;;;;;;;5023344;28;20185;-68
2023/03/03 12:17:26;;;;;;;35.88;23.23;;;;;;;;;;5022015;28;20316;-67
2023/03/03 12:19:57;;;;;;;40.83;22.33;;;;;;;;;;5008901;28;20083;-67
2023/03/03 12:22:33;;;;;;;36.78;23.15;;;;;;;;;;4997441;28;20123;-67
2023/03/03 12:25:23;;;;;;;37.78;22.88;;;;;;;;;;5017474;28;20287;-67
2023/03/03 12:27:55;;;;;;;36.13;23.10;;;;;;;;;;5014269;28;20038;-68
2023/03/03 12:30:32;;;;;;;34.50;21.38;;;;;;;;;;5005227;28;20050;-66
2023/03/03 12:33:15;;;;;;;35.33;22.73;;;;;;;;;;5006879;28;20044;-68
2023/03/03 12:36:13;;;;;;;38.50;23.80;;;;;;;;;;5012581;28;20045;-68
2023/03/03 12:38:48;;;;;;;36.55;22.13;;;;;;;;;;5036560;28;20134;-66
2023/03/03 12:41:20;;;;;;;36.05;23.08;;;;;;;;;;5043976;28;20041;-68
2023/03/03 12:43:56;;;;;;;33.65;21.63;;;;;;;;;;5046066;28;20041;-68
2023/03/03 12:46:38;;;;;;;39.28;22.95;;;;;;;;;;5044136;28;20035;-67
2023/03/03 12:49:04;;;;;;;38.40;23.52;;;;;;;;;;5043658;28;20063;-66
2023/03/03 12:51:44;;;;;;;35.47;22.08;;;;;;;;;;5044473;28;20667;-66
2023/03/03 12:54:23;;;;;;;36.33;23.13;;;;;;;;;;5046811;28;20082;-66
2023/03/03 12:56:55;;;;;;;33.30;21.48;;;;;;;;;;5046105;28;20539;-67
2023/03/03 12:59:26;;;;;;;36.40;21.88;;;;;;;;;;5042197;28;20052;-66
2023/03/03 13:02:23;;;;;;;35.25;22.73;;;;;;;;;;5045530;28;20041;-66
2023/03/03 13:05:16;;;;;;;31.88;22.15;;;;;;;;;;5045005;28;20123;-66
2023/03/03 13:07:48;;;;;;;35.58;21.58;;;;;;;;;;5023545;28;20129;-66
2023/03/03 13:10:33;;;;;;;35.00;21.48;;;;;;;;;;5045045;28;20036;-66
2023/03/03 13:13:14;;;;;;;33.55;20.92;;;;;;;;;;5043427;28;20040;-66
2023/03/03 13:16:04;;;;;;;31.88;20.77;;;;;;;;;;5044067;28;20094;-66
2023/03/03 13:18:58;;;;;;;31.13;20.63;;;;;;;;;;5043509;28;20333;-66
2023/03/03 13:21:30;;;;;;;33.58;21.60;;;;;;;;;;5045632;28;20032;-66
2023/03/03 13:24:02;;;;;;;36.53;21.92;;;;;;;;;;5045547;28;20408;-66
2023/03/03 13:26:32;;;;;;;35.38;20.80;;;;;;;;;;5043704;28;20033;-66
2023/03/03 13:29:04;;;;;;;33.80;21.33;;;;;;;;;;5045834;28;20086;-66
2023/03/03 13:31:46;;;;;;;33.22;21.73;;;;;;;;;;5045277;28;20040;-69
2023/03/03 13:34:23;;;;;;;32.35;20.63;;;;;;;;;;5045783;28;20028;-66
2023/03/03 13:36:57;;;;;;;37.10;19.70;;;;;;;;;;5044636;28;20036;-66
2023/03/03 13:39:32;;;;;;;31.67;20.20;;;;;;;;;;5045943;28;20040;-66
2023/03/03 13:42:03;;;;;;;36.97;21.67;;;;;;;;;;5045447;28;20175;-66
2023/03/03 13:44:41;;;;;;;33.33;21.80;;;;;;;;;;5044262;28;20221;-66
2023/03/03 13:47:22;;;;;;;31.23;20.30;;;;;;;;;;5045488;28;20037;-66
2023/03/03 13:50:07;;;;;;;39.00;21.95;;;;;;;;;;5044575;28;20033;-66
2023/03/03 13:52:41;;;;;;;30.92;19.17;;;;;;;;;;5041752;28;20037;-66
2023/03/03 13:55:19;;;;;;;32.05;20.33;;;;;;;;;;5044499;28;20064;-66
2023/03/03 13:58:09;;;;;;;32.75;21.45;;;;;;;;;;5044414;28;20052;-66
2023/03/03 14:00:38;;;;;;;30.38;20.25;;;;;;;;;;5044272;28;20025;-66
2023/03/03 14:03:03;;;;;;;31.05;20.05;;;;;;;;;;5042310;28;20099;-66
2023/03/03 14:05:44;;;;;;;31.08;20.73;;;;;;;;;;5045070;28;20396;-66
2023/03/03 14:08:25;;;;;;;28.55;19.23;;;;;;;;;;5044269;28;20036;-66
2023/03/03 14:11:03;;;;;;;30.00;20.67;;;;;;;;;;5048657;28;20051;-66
2023/03/03 14:13:40;;;;;;;29.00;21.00;;;;;;;;;;5045494;28;20574;-65
2023/03/03 14:16:16;;;;;;;30.10;19.88;;;;;;;;;;5048302;28;20033;-66
2023/03/03 14:19:27;;;;;;;34.30;18.88;;;;;;;;;;5041646;28;20047;-66
2023/03/03 14:22:11;;;;;;;31.75;20.45;;;;;;;;;;4978301;28;20094;-66
2023/03/03 14:25:01;;;;;;;38.72;19.88;;;;;;;;;;4975713;28;20098;-65
2023/03/03 14:27:45;;;;;;;29.98;19.17;;;;;;;;;;4983029;28;20050;-67
2023/03/03 14:30:32;;;;;;;34.85;19.33;;;;;;;;;;4983736;28;20050;-67
2023/03/03 14:33:06;;;;;;;35.13;20.55;;;;;;;;;;4982349;28;20038;-67
2023/03/03 14:35:38;;;;;;;32.95;22.42;;;;;;;;;;4980646;28;20046;-67
2023/03/03 14:38:15;;;;;;;32.58;20.00;;;;;;;;;;4963168;28;20314;-67
2023/03/03 14:40:44;;;;;;;27.13;18.10;;;;;;;;;;4972991;28;20165;-67
2023/03/03 14:43:34;;;;;;;33.05;18.67;;;;;;;;;;4964529;28;20066;-68
2023/03/03 14:46:39;;;;;;;33.05;18.80;;;;;;;;;;4968881;28;20124;-67
2023/03/03 14:49:13;;;;;;;32.28;18.45;;;;;;;;;;4981559;28;20572;-68
2023/03/03 14:51:41;;;;;;;29.80;19.17;;;;;;;;;;4990436;28;20529;-68